Time;durP1;ratioP1;P1;durP2;ratioP2;P2;SDS_P1;SDS_P2;PMS_P1;PMS_P2;Temp;Humidity;BMP_temperature;BMP_pressure;BME280_temperature;BME280_humidity;BME280_pressure;Samples;Min_cycle;Max_cycle;Signal;HPM_P1;HPM_P2
2022/04/02 00:02:07;;;;;;;2.20;1.23;;;;;;;-145.13;100.00;63600.38;5138946;27;20209;-66
2022/04/02 00:04:34;;;;;;;1.30;1.10;;;;;;;-145.13;100.00;63600.38;5156701;27;20521;-66
2022/04/02 00:07:02;;;;;;;2.53;1.15;;;;;;;-145.13;100.00;63600.38;5138701;27;20622;-66
2022/04/02 00:09:30;;;;;;;2.22;1.33;;;;;;;-145.13;100.00;63600.38;5156689;27;20238;-66
2022/04/02 00:11:57;;;;;;;1.27;1.00;;;;;;;-145.13;100.00;63600.38;5138940;27;20214;-67
2022/04/02 00:14:24;;;;;;;1.13;0.85;;;;;;;-145.13;100.00;63600.38;5138819;27;20512;-67
2022/04/02 00:16:52;;;;;;;1.10;0.82;;;;;;;-145.13;100.00;63600.38;5156881;27;20507;-66
2022/04/02 00:19:20;;;;;;;1.30;0.90;;;;;;;-145.13;100.00;63600.38;5159895;27;20200;-66
2022/04/02 00:21:47;;;;;;;1.33;0.90;;;;;;;-145.13;100.00;63600.38;5142965;27;20201;-66
2022/04/02 00:24:14;;;;;;;1.33;0.88;;;;;;;-145.13;100.00;63600.38;5161060;27;20746;-66
2022/04/02 00:26:43;;;;;;;1.95;0.93;;;;;;;-145.13;100.00;63600.38;5143091;27;20206;-65
2022/04/02 00:29:11;;;;;;;1.05;1.00;;;;;;;-145.13;100.00;63600.38;5161022;27;20186;-65
2022/04/02 00:31:38;;;;;;;1.70;0.80;;;;;;;-145.13;100.00;63600.38;5161246;27;20182;-65
2022/04/02 00:34:05;;;;;;;0.85;0.85;;;;;;;-145.13;100.00;63600.38;5160545;27;20225;-65
2022/04/02 00:36:37;;;;;;;0.70;0.70;;;;;;;-145.13;100.00;63600.38;5161727;27;20179;-66
2022/04/02 00:39:05;;;;;;;2.38;0.90;;;;;;;-145.13;100.00;63600.38;5160981;27;20229;-66
2022/04/02 00:41:32;;;;;;;0.82;0.82;;;;;;;-145.13;100.00;63600.38;5142610;27;20202;-66
2022/04/02 00:44:09;;;;;;;1.20;1.00;;;;;;;-145.13;100.00;63600.38;5160544;27;20206;-66
2022/04/02 00:46:37;;;;;;;0.68;0.68;;;;;;;-145.13;100.00;63600.38;5142163;27;20614;-66
2022/04/02 00:49:05;;;;;;;0.70;0.70;;;;;;;-145.13;100.00;63600.38;5160970;27;20183;-66
2022/04/02 00:51:33;;;;;;;1.20;0.80;;;;;;;-145.13;100.00;63600.38;5160350;27;20210;-66
2022/04/02 00:54:00;;;;;;;0.88;0.70;;;;;;;-145.13;100.00;63600.38;5160222;27;20179;-66
2022/04/02 00:56:28;;;;;;;1.00;0.90;;;;;;;-145.13;100.00;63600.38;5160243;27;20179;-66
2022/04/02 00:58:55;;;;;;;0.90;0.90;;;;;;;-145.13;100.00;63600.38;5160381;27;20210;-66
2022/04/02 01:01:23;;;;;;;1.60;0.90;;;;;;;-145.13;100.00;63600.38;5160578;27;20198;-66
2022/04/02 01:03:50;;;;;;;0.75;0.70;;;;;;;-145.13;100.00;63600.38;5160171;27;20202;-66
2022/04/02 01:06:17;;;;;;;1.88;0.90;;;;;;;-145.13;100.00;63600.38;5160518;27;20218;-66
2022/04/02 01:08:44;;;;;;;0.88;0.80;;;;;;;-145.13;100.00;63600.38;5138320;27;20226;-66
2022/04/02 01:11:11;;;;;;;0.80;0.80;;;;;;;-145.13;100.00;63600.38;5138551;27;20187;-66
2022/04/02 01:13:38;;;;;;;2.28;0.80;;;;;;;-145.13;100.00;63600.38;5139240;27;20214;-66
2022/04/02 01:16:06;;;;;;;0.80;0.80;;;;;;;-145.13;100.00;63600.38;5138479;27;20214;-66
2022/04/02 01:18:34;;;;;;;1.00;0.88;;;;;;;-145.13;100.00;63600.38;5138897;27;20203;-66
2022/04/02 01:21:01;;;;;;;1.38;0.80;;;;;;;-145.13;100.00;63600.38;5138557;27;20256;-66
2022/04/02 01:23:30;;;;;;;0.70;0.70;;;;;;;-145.13;100.00;63600.38;5139382;27;20250;-67
2022/04/02 01:25:58;;;;;;;1.00;0.77;;;;;;;-145.13;100.00;63600.38;5137901;27;20191;-67
2022/04/02 01:28:33;;;;;;;0.85;0.82;;;;;;;-145.13;100.00;63600.38;5139213;27;20278;-67
2022/04/02 01:31:01;;;;;;;0.68;0.68;;;;;;;-145.13;100.00;63600.38;5137755;27;20190;-66
2022/04/02 01:33:28;;;;;;;1.10;1.00;;;;;;;-145.13;100.00;63600.38;5137925;27;20230;-66
2022/04/02 01:35:59;;;;;;;1.40;0.95;;;;;;;-145.13;100.00;63600.38;5138029;27;20203;-66
2022/04/02 01:38:27;;;;;;;0.90;0.90;;;;;;;-145.13;100.00;63600.38;5137863;27;20187;-66
2022/04/02 01:40:56;;;;;;;0.80;0.77;;;;;;;-145.13;100.00;63600.38;5138082;27;20213;-66
2022/04/02 01:43:23;;;;;;;0.80;0.80;;;;;;;-145.13;100.00;63600.38;5138722;27;20478;-66
2022/04/02 01:45:54;;;;;;;1.13;0.80;;;;;;;-145.13;100.00;63600.38;5138911;27;20218;-66
2022/04/02 01:48:21;;;;;;;0.63;0.63;;;;;;;-145.13;100.00;63600.38;5120731;27;20199;-66
2022/04/02 01:50:49;;;;;;;0.85;0.85;;;;;;;-145.13;100.00;63600.38;5138732;27;20179;-66
2022/04/02 01:53:16;;;;;;;0.85;0.80;;;;;;;-145.13;100.00;63600.38;5138574;27;20214;-66
2022/04/02 01:55:42;;;;;;;0.85;0.85;;;;;;;-145.13;100.00;63600.38;5138271;27;20266;-66
2022/04/02 01:58:11;;;;;;;0.80;0.77;;;;;;;-145.13;100.00;63600.38;5138635;27;20209;-67
2022/04/02 02:00:38;;;;;;;0.80;0.80;;;;;;;-145.13;100.00;63600.38;5138233;27;20179;-67
2022/04/02 02:03:06;;;;;;;0.80;0.80;;;;;;;-145.13;100.00;63600.38;5120449;27;20207;-67
2022/04/02 02:05:33;;;;;;;1.27;0.90;;;;;;;-145.13;100.00;63600.38;5137505;27;20211;-67
2022/04/02 02:08:00;;;;;;;1.55;1.10;;;;;;;-145.13;100.00;63600.38;5140270;27;20198;-67
2022/04/02 02:10:28;;;;;;;1.17;1.00;;;;;;;-145.13;100.00;63600.38;5159188;27;20183;-67
2022/04/02 02:12:55;;;;;;;3.47;1.08;;;;;;;-145.13;100.00;63600.38;5158712;27;20192;-67
2022/04/02 02:15:23;;;;;;;0.90;0.90;;;;;;;-145.13;100.00;63600.38;5141052;27;20183;-66
2022/04/02 02:17:51;;;;;;;1.20;1.10;;;;;;;-145.13;100.00;63600.38;5158612;27;20288;-66
2022/04/02 02:20:18;;;;;;;1.17;1.00;;;;;;;-145.13;100.00;63600.38;5141266;27;20209;-66
2022/04/02 02:22:47;;;;;;;1.08;0.80;;;;;;;-145.13;100.00;63600.38;5140603;27;20233;-66
2022/04/02 02:25:15;;;;;;;1.05;0.80;;;;;;;-145.13;100.00;63600.38;5140807;27;20294;-66
2022/04/02 02:27:44;;;;;;;1.20;0.90;;;;;;;-145.13;100.00;63600.38;5140506;27;20625;-66
2022/04/02 02:30:12;;;;;;;1.75;0.98;;;;;;;-145.13;100.00;63600.38;5158815;27;20198;-66
2022/04/02 02:32:41;;;;;;;0.90;0.80;;;;;;;-145.13;100.00;63600.38;5140376;27;20202;-66
2022/04/02 02:38:03;;;;;;;0.90;0.90;;;;;;;-145.13;100.00;63600.38;5158217;27;20205;-66
2022/04/02 02:40:30;;;;;;;0.70;0.70;;;;;;;-145.13;100.00;63600.38;5140536;27;20660;-66
2022/04/02 02:42:57;;;;;;;0.80;0.80;;;;;;;-145.13;100.00;63600.38;5139948;27;20201;-66
2022/04/02 02:45:24;;;;;;;1.23;0.90;;;;;;;-145.13;100.00;63600.38;5140276;27;20683;-66
2022/04/02 02:47:52;;;;;;;0.98;0.88;;;;;;;-145.13;100.00;63600.38;5158186;27;20197;-66
2022/04/02 02:50:19;;;;;;;0.90;0.88;;;;;;;-145.13;100.00;63600.38;5140818;27;20208;-66
2022/04/02 02:52:46;;;;;;;0.95;0.80;;;;;;;-145.13;100.00;63600.38;5139988;27;20228;-66
2022/04/02 02:55:13;;;;;;;1.10;0.90;;;;;;;-145.13;100.00;63600.38;5158255;27;20187;-66
2022/04/02 03:00:21;;;;;;;0.80;0.80;;;;;;;-145.13;100.00;63600.38;5126164;27;20206;-66
2022/04/02 03:02:48;;;;;;;1.17;0.80;;;;;;;-145.13;100.00;63600.38;5140086;27;20194;-66
2022/04/02 03:05:17;;;;;;;0.77;0.70;;;;;;;-145.13;100.00;63600.38;5157773;27;20198;-66
2022/04/02 03:07:49;;;;;;;0.90;0.90;;;;;;;-145.13;100.00;63600.38;5157911;27;20366;-66
2022/04/02 03:10:17;;;;;;;0.70;0.70;;;;;;;-145.13;100.00;63600.38;5116603;28;20183;-66
2022/04/02 03:12:44;;;;;;;0.98;0.80;;;;;;;-145.13;100.00;63600.38;5115916;28;20203;-66
2022/04/02 03:15:11;;;;;;;0.80;0.80;;;;;;;-145.13;100.00;63600.38;5116246;28;20180;-66
2022/04/02 03:17:38;;;;;;;1.13;0.88;;;;;;;-145.13;100.00;63600.38;5116171;28;20580;-66
2022/04/02 03:20:06;;;;;;;0.70;0.70;;;;;;;-145.13;100.00;63600.38;5115504;28;20195;-67
2022/04/02 03:22:39;;;;;;;0.90;0.90;;;;;;;-145.13;100.00;63600.38;5116226;28;20591;-66
2022/04/02 03:25:07;;;;;;;0.77;0.77;;;;;;;-145.13;100.00;63600.38;5116447;28;20212;-66
2022/04/02 03:27:34;;;;;;;1.42;0.75;;;;;;;-145.13;100.00;63600.38;5116545;28;20188;-66
2022/04/02 03:30:01;;;;;;;1.08;0.80;;;;;;;-145.13;100.00;63600.38;5115458;28;20230;-66
2022/04/02 03:32:28;;;;;;;0.80;0.80;;;;;;;-145.13;100.00;63600.38;5116184;28;20191;-66
2022/04/02 03:34:55;;;;;;;0.80;0.80;;;;;;;-145.13;100.00;63600.38;5115460;28;20214;-66
2022/04/02 03:37:21;;;;;;;0.75;0.68;;;;;;;-145.13;100.00;63600.38;5115360;28;20199;-66
2022/04/02 03:39:50;;;;;;;0.80;0.73;;;;;;;-145.13;100.00;63600.38;5115113;28;20195;-66
2022/04/02 03:42:17;;;;;;;0.93;0.85;;;;;;;-145.13;100.00;63600.38;5115995;28;20235;-67
2022/04/02 03:44:44;;;;;;;0.70;0.70;;;;;;;-145.13;100.00;63600.38;5115964;28;20254;-67
2022/04/02 03:47:11;;;;;;;1.05;0.80;;;;;;;-145.13;100.00;63600.38;5115199;28;20261;-67
2022/04/02 03:49:38;;;;;;;1.85;0.80;;;;;;;-145.13;100.00;63600.38;5115014;28;20192;-67
2022/04/02 03:52:06;;;;;;;0.85;0.80;;;;;;;-145.13;100.00;63600.38;5115652;28;20221;-67
2022/04/02 03:54:35;;;;;;;0.60;0.60;;;;;;;-145.13;100.00;63600.38;5131710;27;20600;-67
2022/04/02 03:57:04;;;;;;;0.63;0.60;;;;;;;-145.13;100.00;63600.38;5115561;28;20219;-67
2022/04/02 03:59:31;;;;;;;0.75;0.75;;;;;;;-145.13;100.00;63600.38;5114928;28;20211;-66
2022/04/02 04:01:58;;;;;;;0.73;0.73;;;;;;;-145.13;100.00;63600.38;5114915;28;20286;-67
2022/04/02 04:04:25;;;;;;;1.27;0.90;;;;;;;-145.13;100.00;63600.38;5114919;28;20247;-66
2022/04/02 04:06:56;;;;;;;2.05;0.90;;;;;;;-145.13;100.00;63600.38;5115646;28;20184;-66
2022/04/02 04:09:23;;;;;;;1.65;1.23;;;;;;;-145.13;100.00;63600.38;5128400;28;20235;-67
2022/04/02 04:11:50;;;;;;;1.13;0.80;;;;;;;-145.13;100.00;63600.38;5135988;28;20617;-67
2022/04/02 04:14:19;;;;;;;1.42;1.30;;;;;;;-145.13;100.00;63600.38;5136216;27;20244;-67
2022/04/02 04:16:46;;;;;;;1.55;1.00;;;;;;;-145.13;100.00;63600.38;5135806;28;20237;-67
2022/04/02 04:19:13;;;;;;;0.80;0.80;;;;;;;-145.13;100.00;63600.38;5136155;28;20194;-66
2022/04/02 04:21:41;;;;;;;0.95;0.75;;;;;;;-145.13;100.00;63600.38;5136059;28;20201;-66
2022/04/02 04:24:08;;;;;;;1.17;0.80;;;;;;;-145.13;100.00;63600.38;5135245;28;20219;-66
2022/04/02 04:26:35;;;;;;;1.10;1.00;;;;;;;-145.13;100.00;63600.38;5135731;28;20572;-66
2022/04/02 04:29:03;;;;;;;1.60;0.80;;;;;;;-145.13;100.00;63600.38;5135507;28;20575;-66
2022/04/02 04:31:31;;;;;;;1.45;0.70;;;;;;;-145.13;100.00;63600.38;5135015;28;20197;-69
2022/04/02 04:33:58;;;;;;;1.17;0.90;;;;;;;-145.13;100.00;63600.38;5135661;28;20515;-66
2022/04/02 04:36:25;;;;;;;1.27;0.75;;;;;;;-145.13;100.00;63600.38;5136356;28;20199;-66
2022/04/02 04:38:52;;;;;;;1.15;0.63;;;;;;;-145.13;100.00;63600.38;5117498;28;20237;-66
2022/04/02 04:41:20;;;;;;;0.77;0.77;;;;;;;-145.13;100.00;63600.38;5117881;28;20194;-66
2022/04/02 04:43:48;;;;;;;1.10;0.90;;;;;;;-145.13;100.00;63600.38;5135718;28;20251;-66
2022/04/02 04:46:16;;;;;;;0.85;0.80;;;;;;;-145.13;100.00;63600.38;5136047;28;20201;-66
2022/04/02 04:48:44;;;;;;;0.82;0.82;;;;;;;-145.13;100.00;63600.38;5118061;28;20260;-66
2022/04/02 04:51:12;;;;;;;1.02;0.90;;;;;;;-145.13;100.00;63600.38;5135902;28;20248;-66
2022/04/02 04:53:39;;;;;;;1.02;0.95;;;;;;;-145.13;100.00;63600.38;5135782;28;20196;-66
2022/04/02 04:56:07;;;;;;;1.35;1.25;;;;;;;-145.13;100.00;63600.38;5134982;28;20233;-66
2022/04/02 04:58:34;;;;;;;0.85;0.80;;;;;;;-145.13;100.00;63600.38;5135631;28;20182;-66
2022/04/02 05:01:01;;;;;;;0.80;0.80;;;;;;;-145.13;100.00;63600.38;5134892;28;20223;-66
2022/04/02 05:03:32;;;;;;;1.90;0.98;;;;;;;-145.13;100.00;63600.38;5134998;27;20199;-69
2022/04/02 05:06:01;;;;;;;1.52;0.90;;;;;;;-145.13;100.00;63600.38;5138571;27;20511;-67
2022/04/02 05:08:28;;;;;;;2.35;1.00;;;;;;;-145.13;100.00;63600.38;5138309;27;20262;-67
2022/04/02 05:10:55;;;;;;;1.35;1.00;;;;;;;-145.13;100.00;63600.38;5138747;27;20230;-66
2022/04/02 05:13:22;;;;;;;1.80;0.90;;;;;;;-145.13;100.00;63600.38;5138670;27;20567;-66
2022/04/02 05:15:49;;;;;;;0.70;0.70;;;;;;;-145.13;100.00;63600.38;5138496;27;20195;-66
2022/04/02 05:18:16;;;;;;;0.90;0.90;;;;;;;-145.13;100.00;63600.38;5138466;27;20591;-67
2022/04/02 05:20:43;;;;;;;0.75;0.75;;;;;;;-145.13;100.00;63600.38;5139518;27;20189;-67
2022/04/02 05:23:12;;;;;;;0.88;0.85;;;;;;;-145.13;100.00;63600.38;5139233;27;20509;-67
2022/04/02 05:25:39;;;;;;;1.27;0.80;;;;;;;-145.13;100.00;63600.38;5138260;27;20230;-67
2022/04/02 05:28:07;;;;;;;0.85;0.80;;;;;;;-145.13;100.00;63600.38;5139120;27;20244;-67
2022/04/02 05:30:33;;;;;;;1.00;0.90;;;;;;;-145.13;100.00;63600.38;5138232;27;20229;-66
2022/04/02 05:33:00;;;;;;;2.22;1.10;;;;;;;-145.13;100.00;63600.38;5138851;27;20517;-66
2022/04/02 05:35:27;;;;;;;0.95;0.70;;;;;;;-145.13;100.00;63600.38;5137889;27;20195;-67
2022/04/02 05:37:54;;;;;;;1.85;1.10;;;;;;;-145.13;100.00;63600.38;5137924;27;20191;-70
2022/04/02 05:40:23;;;;;;;1.48;0.93;;;;;;;-145.13;100.00;63600.38;5138478;27;20214;-70
2022/04/02 05:42:49;;;;;;;1.20;0.90;;;;;;;-145.13;100.00;63600.38;5138049;27;20218;-73
2022/04/02 05:45:16;;;;;;;0.90;0.63;;;;;;;-145.13;100.00;63600.38;5138145;27;20246;-69
2022/04/02 05:47:45;;;;;;;1.55;0.90;;;;;;;-145.13;100.00;63600.38;5138440;27;20179;-67
2022/04/02 05:50:12;;;;;;;1.90;0.90;;;;;;;-145.13;100.00;63600.38;5138485;27;20637;-67
2022/04/02 05:52:40;;;;;;;0.90;0.90;;;;;;;-145.13;100.00;63600.38;5137729;27;20226;-68
2022/04/02 05:55:08;;;;;;;0.93;0.93;;;;;;;-145.13;100.00;63600.38;5137714;27;20245;-72
2022/04/02 05:57:36;;;;;;;0.85;0.85;;;;;;;-145.13;100.00;63600.38;5137721;27;20231;-68
2022/04/02 06:00:05;;;;;;;1.13;0.80;;;;;;;-145.13;100.00;63600.38;5137660;27;20195;-68
2022/04/02 06:02:33;;;;;;;1.75;0.80;;;;;;;-145.13;100.00;63600.38;5138455;27;20244;-68
2022/04/02 06:05:01;;;;;;;0.90;0.90;;;;;;;-145.13;100.00;63600.38;5138341;27;20225;-68
2022/04/02 06:07:27;;;;;;;0.90;0.90;;;;;;;-145.13;100.00;63600.38;5137578;27;20187;-70
2022/04/02 06:09:54;;;;;;;1.55;0.88;;;;;;;-145.13;100.00;63600.38;5137280;27;20233;-67
2022/04/02 06:12:21;;;;;;;1.60;1.10;;;;;;;-145.13;100.00;63600.38;5138024;27;20595;-68
2022/04/02 06:14:50;;;;;;;1.23;1.13;;;;;;;-145.13;100.00;63600.38;5138322;27;20272;-67
2022/04/02 06:17:17;;;;;;;1.17;1.00;;;;;;;-145.13;100.00;63600.38;5119135;27;20215;-67
2022/04/02 06:19:43;;;;;;;2.45;1.10;;;;;;;-145.13;100.00;63600.38;5137902;27;20180;-67
2022/04/02 06:22:10;;;;;;;1.10;1.00;;;;;;;-145.13;100.00;63600.38;5120002;27;20203;-67
2022/04/02 06:24:38;;;;;;;0.80;0.80;;;;;;;-145.13;100.00;63600.38;5138082;27;20207;-67
2022/04/02 06:27:05;;;;;;;1.70;1.10;;;;;;;-145.13;100.00;63600.38;5120348;27;20220;-68
2022/04/02 06:29:32;;;;;;;1.20;1.10;;;;;;;-145.13;100.00;63600.38;5137900;27;20193;-68
2022/04/02 06:32:00;;;;;;;1.60;0.93;;;;;;;-145.13;100.00;63600.38;5136675;27;20430;-67
2022/04/02 06:34:27;;;;;;;2.67;0.90;;;;;;;-145.13;100.00;63600.38;5137785;27;20419;-67
2022/04/02 06:36:54;;;;;;;1.83;1.00;;;;;;;-145.13;100.00;63600.38;5118769;27;20458;-67
2022/04/02 06:39:21;;;;;;;2.70;1.10;;;;;;;-145.13;100.00;63600.38;5136942;27;20195;-68
2022/04/02 06:41:48;;;;;;;1.37;0.90;;;;;;;-145.13;100.00;63600.38;5137421;27;20221;-67
2022/04/02 06:44:16;;;;;;;1.80;1.00;;;;;;;-145.13;100.00;63600.38;5137179;27;20195;-67
2022/04/02 06:46:42;;;;;;;2.23;1.00;;;;;;;-145.13;100.00;63600.38;5136985;27;20202;-67
2022/04/02 06:49:11;;;;;;;0.93;0.90;;;;;;;-145.13;100.00;63600.38;5137701;27;20187;-67
2022/04/02 06:51:38;;;;;;;1.73;1.00;;;;;;;-145.13;100.00;63600.38;5136820;27;20395;-67
2022/04/02 06:54:06;;;;;;;2.30;1.10;;;;;;;-145.13;100.00;63600.38;5136832;27;20195;-67
2022/04/02 06:56:33;;;;;;;1.00;1.00;;;;;;;-145.13;100.00;63600.38;5119295;27;20191;-67
2022/04/02 06:59:00;;;;;;;2.07;0.93;;;;;;;-145.13;100.00;63600.38;5137356;27;20198;-67
2022/04/02 07:01:27;;;;;;;1.88;1.00;;;;;;;-145.13;100.00;63600.38;5137037;27;20603;-67
2022/04/02 07:03:54;;;;;;;1.20;1.00;;;;;;;-145.13;100.00;63600.38;5136994;27;20198;-67
2022/04/02 07:06:22;;;;;;;3.47;1.27;;;;;;;-145.13;100.00;63600.38;5137073;27;20207;-68
2022/04/02 07:08:49;;;;;;;2.70;1.27;;;;;;;-145.13;100.00;63600.38;5119190;27;20234;-67
2022/04/02 07:11:16;;;;;;;1.53;1.20;;;;;;;-145.13;100.00;63600.38;5137287;27;20179;-67
2022/04/02 07:13:43;;;;;;;1.57;1.13;;;;;;;-145.13;100.00;63600.38;5137106;27;20198;-67
2022/04/02 07:16:10;;;;;;;1.60;1.17;;;;;;;-145.13;100.00;63600.38;5137130;27;20214;-67
2022/04/02 07:18:43;;;;;;;3.27;1.20;;;;;;;-145.13;100.00;63600.38;5119736;27;20233;-67
2022/04/02 07:21:11;;;;;;;2.63;1.10;;;;;;;-145.13;100.00;63600.38;5119151;27;20275;-67
2022/04/02 07:23:42;;;;;;;2.05;0.90;;;;;;;-145.13;100.00;63600.38;5118910;27;20191;-68
2022/04/02 07:26:09;;;;;;;1.25;1.15;;;;;;;-145.13;100.00;63600.38;5136764;27;20207;-68
2022/04/02 07:28:38;;;;;;;2.67;1.20;;;;;;;-145.13;100.00;63600.38;5137025;27;20198;-68
2022/04/02 07:31:04;;;;;;;2.17;1.10;;;;;;;-145.13;100.00;63600.38;5136884;27;20229;-68
2022/04/02 07:33:31;;;;;;;2.08;1.05;;;;;;;-145.13;100.00;63600.38;5118612;27;20510;-68
2022/04/02 07:36:04;;;;;;;1.80;1.13;;;;;;;-145.13;100.00;63600.38;5136609;27;20229;-68
2022/04/02 07:38:38;;;;;;;1.60;1.10;;;;;;;-145.13;100.00;63600.38;5136671;27;20213;-68
2022/04/02 07:41:14;;;;;;;1.85;1.20;;;;;;;-145.13;100.00;63600.38;5118868;27;20206;-68
2022/04/02 07:43:42;;;;;;;2.22;1.20;;;;;;;-145.13;100.00;63600.38;5136257;27;20566;-68
2022/04/02 07:46:20;;;;;;;2.75;1.35;;;;;;;-145.13;100.00;63600.38;5136050;27;20290;-68
2022/04/02 07:48:49;;;;;;;1.58;1.10;;;;;;;-145.13;100.00;63600.38;5118583;28;20203;-68
2022/04/02 07:51:18;;;;;;;1.58;1.38;;;;;;;-145.13;100.00;63600.38;5117671;27;20415;-68
2022/04/02 07:53:48;;;;;;;1.88;1.20;;;;;;;-145.13;100.00;63600.38;5119436;27;20247;-72
2022/04/02 07:56:20;;;;;;;2.38;1.27;;;;;;;-145.13;100.00;63600.38;5118320;27;20187;-71
2022/04/02 07:58:51;;;;;;;1.70;1.45;;;;;;;-145.13;100.00;63600.38;5136552;27;20183;-69
2022/04/02 08:01:19;;;;;;;1.27;1.17;;;;;;;-145.13;100.00;63600.38;5135970;27;20221;-68
2022/04/02 08:03:48;;;;;;;2.13;1.30;;;;;;;-145.13;100.00;63600.38;5118249;27;20233;-70
2022/04/02 08:06:15;;;;;;;3.08;1.30;;;;;;;-145.13;100.00;63600.38;5118306;28;20215;-75
2022/04/02 08:08:43;;;;;;;2.95;1.20;;;;;;;-145.13;100.00;63600.38;5128252;27;20235;-67
2022/04/02 08:11:10;;;;;;;1.20;1.10;;;;;;;-145.13;100.00;63600.38;5098019;28;20196;-66
2022/04/02 08:13:40;;;;;;;3.10;1.23;;;;;;;-145.13;100.00;63600.38;5097850;28;20196;-67
2022/04/02 08:16:08;;;;;;;1.70;1.40;;;;;;;-145.13;100.00;63600.38;5097723;28;20194;-67
2022/04/02 08:18:36;;;;;;;1.25;1.13;;;;;;;-145.13;100.00;63600.38;5115721;28;20176;-69
2022/04/02 08:21:03;;;;;;;1.40;1.00;;;;;;;-145.13;100.00;63600.38;5097814;28;20219;-69
2022/04/02 08:23:30;;;;;;;1.42;1.30;;;;;;;-145.13;100.00;63600.38;5115651;28;20183;-67
2022/04/02 08:26:07;;;;;;;2.13;1.33;;;;;;;-145.13;100.00;63600.38;5115392;28;20307;-67
2022/04/02 08:28:43;;;;;;;2.78;1.42;;;;;;;-145.13;100.00;63600.38;5115330;28;20194;-68
2022/04/02 08:31:14;;;;;;;1.77;1.17;;;;;;;-145.13;100.00;63600.38;5097547;28;20198;-67
2022/04/02 08:33:46;;;;;;;2.30;1.20;;;;;;;-145.13;100.00;63600.38;5097482;28;20204;-67
2022/04/02 08:36:18;;;;;;;1.67;1.00;;;;;;;-145.13;100.00;63600.38;5097636;28;20195;-69
2022/04/02 08:38:51;;;;;;;1.95;1.30;;;;;;;-145.13;100.00;63600.38;5114995;28;20434;-66
2022/04/02 08:42:00;;;;;;;1.20;1.10;;;;;;;-145.13;100.00;63600.38;5119119;28;20223;-66
2022/04/02 08:45:02;;;;;;;2.55;1.25;;;;;;;-145.13;100.00;63600.38;5101465;28;20210;-66
2022/04/02 08:48:10;;;;;;;2.13;1.10;;;;;;;-145.13;100.00;63600.38;5119480;28;20187;-66
2022/04/02 08:50:43;;;;;;;1.52;1.10;;;;;;;-145.13;100.00;63600.38;5101801;28;20191;-66
2022/04/02 08:53:20;;;;;;;1.15;1.15;;;;;;;-145.13;100.00;63600.38;5119179;28;20226;-67
2022/04/02 08:55:49;;;;;;;1.13;1.02;;;;;;;-145.13;100.00;63600.38;5119101;28;20191;-67
2022/04/02 08:58:25;;;;;;;2.03;1.60;;;;;;;-145.13;100.00;63600.38;5118947;28;20188;-68
2022/04/02 09:01:04;;;;;;;3.17;1.13;;;;;;;-145.13;100.00;63600.38;5118795;28;20852;-67
2022/04/02 09:03:54;;;;;;;1.30;1.20;;;;;;;-145.13;100.00;63600.38;5101206;28;20595;-66
2022/04/02 09:06:59;;;;;;;1.95;1.10;;;;;;;-145.13;100.00;63600.38;5101560;28;20223;-66
2022/04/02 09:09:49;;;;;;;1.83;1.30;;;;;;;-145.13;100.00;63600.38;5090372;28;20236;-67
2022/04/02 09:12:35;;;;;;;1.45;1.08;;;;;;;-145.13;100.00;63600.38;5118487;28;20563;-67
2022/04/02 09:15:10;;;;;;;3.13;1.10;;;;;;;-145.13;100.00;63600.38;5101208;28;20249;-70
2022/04/02 09:17:40;;;;;;;2.90;1.27;;;;;;;-145.13;100.00;63600.38;5100848;28;20218;-66
2022/04/02 09:20:23;;;;;;;1.77;1.08;;;;;;;-145.13;100.00;63600.38;5117552;28;20226;-66
2022/04/02 09:23:07;;;;;;;1.42;1.10;;;;;;;-145.13;100.00;63600.38;5118350;28;20624;-66
2022/04/02 09:26:12;;;;;;;1.20;1.10;;;;;;;-145.13;100.00;63600.38;5117986;28;20207;-66
2022/04/02 09:28:44;;;;;;;2.40;1.40;;;;;;;-145.13;100.00;63600.38;5117306;28;20440;-66
2022/04/02 09:31:47;;;;;;;2.58;1.40;;;;;;;-145.13;100.00;63600.38;5118804;28;20285;-66
2022/04/02 09:37:10;;;;;;;1.30;1.20;;;;;;;;;;5092734;27;21055;-66
2022/04/02 09:39:46;;;;;;;1.30;1.20;;;;;;;;;;5092408;28;20235;-66
2022/04/02 09:42:24;;;;;;;2.17;1.20;;;;;;;;;;5092458;28;20206;-66
2022/04/02 09:44:58;;;;;;;1.75;1.50;;;;;;;;;;5125756;28;20207;-66
2022/04/02 09:47:30;;;;;;;1.40;1.30;;;;;;;;;;5091904;28;20206;-66
2022/04/02 09:50:02;;;;;;;1.10;1.10;;;;;;;;;;5092500;28;20184;-66
2022/04/02 09:52:31;;;;;;;2.60;1.30;;;;;;;;;;5092660;28;20227;-66
2022/04/02 09:55:04;;;;;;;2.08;1.13;;;;;;;;;;5125780;28;20290;-66
2022/04/02 09:57:37;;;;;;;1.75;1.20;;;;;;;;;;5092467;28;20185;-66
2022/04/02 10:00:05;;;;;;;1.70;1.50;;;;;;;;;;5091234;28;20200;-67
2022/04/02 10:02:44;;;;;;;1.80;1.70;;;;;;;;;;5091631;28;20203;-67
2022/04/02 10:05:14;;;;;;;2.25;1.70;;;;;;;;;;5092374;28;20215;-67
2022/04/02 10:07:48;;;;;;;1.63;1.45;;;;;;;;;;5090910;28;20246;-67
2022/04/02 10:10:15;;;;;;;1.73;1.55;;;;;;;;;;5091242;28;20212;-67
2022/04/02 10:12:44;;;;;;;2.35;1.67;;;;;;;;;;5092533;28;20196;-67
2022/04/02 10:15:13;;;;;;;1.88;1.40;;;;;;;;;;5091232;28;20708;-66
2022/04/02 10:17:40;;;;;;;1.05;1.05;;;;;;;;;;5125192;28;20291;-66
2022/04/02 10:20:08;;;;;;;1.38;1.20;;;;;;;;;;5091784;28;20181;-66
2022/04/02 10:22:36;;;;;;;2.25;1.80;;;;;;;;;;5091660;28;20245;-66
2022/04/02 10:25:06;;;;;;;1.30;1.08;;;;;;;;;;5091877;28;20250;-66
2022/04/02 10:27:34;;;;;;;2.88;1.35;;;;;;;;;;5091004;28;20284;-66
2022/04/02 10:30:07;;;;;;;1.17;1.17;;;;;;;;;;5090957;28;20232;-66
2022/04/02 10:32:40;;;;;;;1.20;1.10;;;;;;;;;;5125188;28;20189;-66
2022/04/02 10:35:14;;;;;;;0.90;0.90;;;;;;;;;;5124639;28;20237;-67
2022/04/02 10:37:42;;;;;;;1.23;1.10;;;;;;;;;;5092306;28;20601;-67
2022/04/02 10:40:11;;;;;;;1.17;1.17;;;;;;;;;;5091867;28;20216;-67
2022/04/02 10:42:38;;;;;;;2.05;1.13;;;;;;;;;;5124541;28;20211;-67
2022/04/02 10:45:05;;;;;;;1.65;1.35;;;;;;;;;;5124903;28;20228;-67
2022/04/02 10:47:35;;;;;;;2.28;1.20;;;;;;;;;;5083152;28;20181;-67
2022/04/02 10:50:04;;;;;;;3.40;1.23;;;;;;;;;;5077871;28;20189;-67
2022/04/02 10:52:31;;;;;;;1.13;1.10;;;;;;;;;;5076726;28;20288;-67
2022/04/02 10:54:58;;;;;;;1.38;1.20;;;;;;;;;;5076650;28;20633;-67
2022/04/02 10:57:27;;;;;;;1.30;1.20;;;;;;;;;;5077449;28;20306;-67
2022/04/02 10:59:59;;;;;;;1.48;1.23;;;;;;;;;;5077707;28;20196;-67
2022/04/02 11:02:34;;;;;;;1.10;1.10;;;;;;;;;;5076841;28;20236;-67
2022/04/02 11:05:04;;;;;;;1.60;1.20;;;;;;;;;;5076548;28;20275;-67
2022/04/02 11:07:34;;;;;;;1.40;1.27;;;;;;;;;;5076352;28;20189;-67
2022/04/02 11:10:04;;;;;;;1.10;1.10;;;;;;;;;;5077175;28;20185;-66
2022/04/02 11:12:33;;;;;;;1.40;1.30;;;;;;;;;;5077236;28;20189;-67
2022/04/02 11:15:07;;;;;;;1.50;1.17;;;;;;;;;;5077166;28;20181;-67
2022/04/02 11:17:34;;;;;;;1.30;1.20;;;;;;;;;;5077462;28;20224;-67
2022/04/02 11:20:05;;;;;;;1.13;0.93;;;;;;;;;;5110384;28;20201;-67
2022/04/02 11:22:36;;;;;;;1.00;0.90;;;;;;;;;;5077346;28;20192;-67
2022/04/02 11:25:04;;;;;;;1.17;1.10;;;;;;;;;;5077042;28;20217;-66
2022/04/02 11:27:36;;;;;;;1.55;1.17;;;;;;;;;;5076993;28;20189;-66
2022/04/02 11:30:05;;;;;;;3.03;1.17;;;;;;;;;;5077138;28;20185;-66
2022/04/02 11:32:37;;;;;;;1.17;1.00;;;;;;;;;;5076214;28;20220;-66
2022/04/02 11:35:07;;;;;;;2.00;1.23;;;;;;;;;;5109831;28;20236;-66
2022/04/02 11:37:36;;;;;;;2.83;1.20;;;;;;;;;;5076583;28;20220;-66
2022/04/02 11:40:04;;;;;;;2.28;1.42;;;;;;;;;;5075743;28;20609;-66
2022/04/02 11:42:33;;;;;;;1.60;1.50;;;;;;;;;;5076944;28;20232;-66
2022/04/02 11:45:02;;;;;;;1.60;1.50;;;;;;;;;;5076602;28;20185;-66
2022/04/02 11:47:30;;;;;;;1.63;1.52;;;;;;;;;;5076559;28;20258;-66
2022/04/02 11:50:04;;;;;;;1.40;1.30;;;;;;;;;;5076752;28;20189;-66
2022/04/02 11:52:48;;;;;;;2.75;1.55;;;;;;;;;;5076185;28;20648;-66
2022/04/02 11:55:15;;;;;;;1.40;1.30;;;;;;;;;;5076358;28;20225;-66
2022/04/02 11:57:57;;;;;;;1.38;1.20;;;;;;;;;;5075697;28;20308;-66
2022/04/02 12:00:26;;;;;;;1.15;1.05;;;;;;;;;;5076087;28;20251;-66
2022/04/02 12:02:53;;;;;;;1.65;1.50;;;;;;;;;;5075966;28;20201;-66
2022/04/02 12:05:21;;;;;;;1.60;1.50;;;;;;;;;;5076043;28;20266;-66
2022/04/02 12:07:48;;;;;;;1.77;1.38;;;;;;;;;;5076472;28;20537;-66